sensor_id;sensor_type;location;lat;lon;timestamp;pressure;altitude;pressure_sealevel;temperature;humidity
15489;BME280;7846;48.830;9.116;2023-04-09T00:02:34;98535.41;;;9.82;66.47
15489;BME280;7846;48.830;9.116;2023-04-09T00:05:18;98537.09;;;9.93;66.02
15489;BME280;7846;48.830;9.116;2023-04-09T00:08:03;98543.38;;;10.02;66.20
15489;BME280;7846;48.830;9.116;2023-04-09T00:10:47;98536.53;;;9.89;66.15
15489;BME280;7846;48.830;9.116;2023-04-09T00:13:32;98529.88;;;9.76;66.40
15489;BME280;7846;48.830;9.116;2023-04-09T00:16:17;98535.16;;;9.85;66.44
15489;BME280;7846;48.830;9.116;2023-04-09T00:19:01;98538.59;;;9.86;66.11
15489;BME280;7846;48.830;9.116;2023-04-09T00:21:45;98537.22;;;9.82;66.27
15489;BME280;7846;48.830;9.116;2023-04-09T00:24:30;98534.63;;;9.91;66.26
15489;BME280;7846;48.830;9.116;2023-04-09T00:27:14;98527.16;;;10.06;65.65
15489;BME280;7846;48.830;9.116;2023-04-09T00:29:58;98521.66;;;10.09;65.57
15489;BME280;7846;48.830;9.116;2023-04-09T00:32:42;98523.59;;;10.17;65.32
15489;BME280;7846;48.830;9.116;2023-04-09T00:35:26;98519.41;;;10.14;65.24
15489;BME280;7846;48.830;9.116;2023-04-09T00:38:10;98524.69;;;10.14;65.38
15489;BME280;7846;48.830;9.116;2023-04-09T00:40:54;98512.34;;;10.15;65.47
15489;BME280;7846;48.830;9.116;2023-04-09T00:43:39;98522.75;;;10.07;65.67
15489;BME280;7846;48.830;9.116;2023-04-09T00:46:23;98514.16;;;10.14;65.59
15489;BME280;7846;48.830;9.116;2023-04-09T00:49:08;98513.19;;;10.06;65.79
15489;BME280;7846;48.830;9.116;2023-04-09T00:51:52;98516.78;;;10.05;65.54
15489;BME280;7846;48.830;9.116;2023-04-09T00:54:36;98511.81;;;10.02;65.87
15489;BME280;7846;48.830;9.116;2023-04-09T00:57:21;98513.03;;;10.07;65.63
15489;BME280;7846;48.830;9.116;2023-04-09T01:00:06;98516.13;;;10.12;65.22
15489;BME280;7846;48.830;9.116;2023-04-09T01:02:50;98512.06;;;10.08;65.43
15489;BME280;7846;48.830;9.116;2023-04-09T01:08:57;98513.22;;;10.45;65.28
15489;BME280;7846;48.830;9.116;2023-04-09T01:14:37;98515.03;;;10.34;65.64
15489;BME280;7846;48.830;9.116;2023-04-09T01:17:30;98521.22;;;10.14;66.65
15489;BME280;7846;48.830;9.116;2023-04-09T01:20:23;98520.81;;;10.09;66.88
15489;BME280;7846;48.830;9.116;2023-04-09T01:29:31;98516.81;;;10.34;65.27
15489;BME280;7846;48.830;9.116;2023-04-09T01:32:17;98512.91;;;10.18;65.57
15489;BME280;7846;48.830;9.116;2023-04-09T01:35:02;98517.88;;;10.12;65.96
15489;BME280;7846;48.830;9.116;2023-04-09T01:37:48;98508.75;;;10.06;66.14
15489;BME280;7846;48.830;9.116;2023-04-09T01:40:32;98514.84;;;10.07;66.04
15489;BME280;7846;48.830;9.116;2023-04-09T01:43:17;98517.53;;;10.26;65.99
15489;BME280;7846;48.830;9.116;2023-04-09T01:46:04;98512.41;;;10.54;65.45
15489;BME280;7846;48.830;9.116;2023-04-09T01:48:48;98515.31;;;10.41;65.46
15489;BME280;7846;48.830;9.116;2023-04-09T01:51:33;98513.63;;;10.30;65.36
15489;BME280;7846;48.830;9.116;2023-04-09T01:54:18;98517.75;;;10.23;65.64
15489;BME280;7846;48.830;9.116;2023-04-09T01:57:02;98511.81;;;10.11;66.03
15489;BME280;7846;48.830;9.116;2023-04-09T01:59:46;98516.78;;;10.05;66.14
15489;BME280;7846;48.830;9.116;2023-04-09T02:02:58;98513.72;;;10.00;66.90
15489;BME280;7846;48.830;9.116;2023-04-09T02:05:45;98519.31;;;10.16;66.54
15489;BME280;7846;48.830;9.116;2023-04-09T02:08:33;98512.13;;;10.28;65.90
15489;BME280;7846;48.830;9.116;2023-04-09T02:11:19;98512.25;;;10.16;66.23
15489;BME280;7846;48.830;9.116;2023-04-09T02:14:05;98511.81;;;10.11;66.14
15489;BME280;7846;48.830;9.116;2023-04-09T02:16:52;98514.44;;;10.21;65.49
15489;BME280;7846;48.830;9.116;2023-04-09T02:19:40;98516.56;;;10.47;66.15
15489;BME280;7846;48.830;9.116;2023-04-09T02:22:24;98511.31;;;10.27;65.54
15489;BME280;7846;48.830;9.116;2023-04-09T02:25:11;98512.13;;;10.37;65.30
15489;BME280;7846;48.830;9.116;2023-04-09T02:27:56;98508.22;;;10.41;64.86
15489;BME280;7846;48.830;9.116;2023-04-09T02:30:41;98506.44;;;10.32;65.25
15489;BME280;7846;48.830;9.116;2023-04-09T02:33:25;98506.16;;;10.26;65.51
15489;BME280;7846;48.830;9.116;2023-04-09T02:36:10;98502.56;;;10.46;65.43
15489;BME280;7846;48.830;9.116;2023-04-09T02:38:54;98510.00;;;10.12;65.55
15489;BME280;7846;48.830;9.116;2023-04-09T02:41:38;98500.22;;;10.33;64.97
15489;BME280;7846;48.830;9.116;2023-04-09T02:44:22;98510.88;;;10.32;65.09
15489;BME280;7846;48.830;9.116;2023-04-09T02:47:07;98503.66;;;10.24;65.21
15489;BME280;7846;48.830;9.116;2023-04-09T02:49:51;98504.25;;;10.28;64.97
15489;BME280;7846;48.830;9.116;2023-04-09T02:52:35;98510.34;;;10.28;64.86
15489;BME280;7846;48.830;9.116;2023-04-09T02:55:19;98507.53;;;10.20;65.74
15489;BME280;7846;48.830;9.116;2023-04-09T02:58:03;98504.59;;;10.04;66.14
15489;BME280;7846;48.830;9.116;2023-04-09T03:00:47;98499.78;;;10.09;65.80
15489;BME280;7846;48.830;9.116;2023-04-09T03:03:31;98504.63;;;10.13;65.68
15489;BME280;7846;48.830;9.116;2023-04-09T03:06:16;98503.75;;;9.93;66.30
15489;BME280;7846;48.830;9.116;2023-04-09T03:09:01;98492.97;;;9.87;66.18
15489;BME280;7846;48.830;9.116;2023-04-09T03:11:46;98500.03;;;9.96;66.17
15489;BME280;7846;48.830;9.116;2023-04-09T03:14:30;98501.78;;;9.76;66.68
15489;BME280;7846;48.830;9.116;2023-04-09T03:17:15;98492.22;;;9.75;66.77
15489;BME280;7846;48.830;9.116;2023-04-09T03:19:59;98489.63;;;9.85;66.55
15489;BME280;7846;48.830;9.116;2023-04-09T03:22:43;98492.41;;;9.83;66.23
15489;BME280;7846;48.830;9.116;2023-04-09T03:25:27;98498.19;;;9.77;66.55
15489;BME280;7846;48.830;9.116;2023-04-09T03:28:12;98495.72;;;9.76;66.59
15489;BME280;7846;48.830;9.116;2023-04-09T03:30:57;98500.81;;;9.77;66.46
15489;BME280;7846;48.830;9.116;2023-04-09T03:33:41;98490.84;;;9.71;66.52
15489;BME280;7846;48.830;9.116;2023-04-09T03:36:25;98493.09;;;9.76;66.51
15489;BME280;7846;48.830;9.116;2023-04-09T03:39:10;98489.91;;;9.72;66.61
15489;BME280;7846;48.830;9.116;2023-04-09T03:41:54;98493.19;;;9.74;66.57
15489;BME280;7846;48.830;9.116;2023-04-09T03:44:40;98493.25;;;9.43;67.94
15489;BME280;7846;48.830;9.116;2023-04-09T03:47:24;98494.13;;;9.54;67.93
15489;BME280;7846;48.830;9.116;2023-04-09T03:50:09;98495.16;;;9.72;67.37
15489;BME280;7846;48.830;9.116;2023-04-09T03:52:53;98485.06;;;9.77;67.15
15489;BME280;7846;48.830;9.116;2023-04-09T03:55:43;98490.06;;;10.00;67.21
15489;BME280;7846;48.830;9.116;2023-04-09T03:58:27;98485.00;;;9.58;67.67
15489;BME280;7846;48.830;9.116;2023-04-09T04:01:11;98491.72;;;9.41;68.47
15489;BME280;7846;48.830;9.116;2023-04-09T04:03:55;98490.53;;;9.55;67.90
15489;BME280;7846;48.830;9.116;2023-04-09T04:06:39;98487.25;;;9.72;67.25
15489;BME280;7846;48.830;9.116;2023-04-09T04:09:24;98483.94;;;9.70;67.24
15489;BME280;7846;48.830;9.116;2023-04-09T04:12:08;98493.47;;;9.71;67.66
15489;BME280;7846;48.830;9.116;2023-04-09T04:14:52;98495.72;;;9.76;66.94
15489;BME280;7846;48.830;9.116;2023-04-09T04:17:36;98495.16;;;9.72;67.27
15489;BME280;7846;48.830;9.116;2023-04-09T04:20:20;98502.09;;;9.83;66.80
15489;BME280;7846;48.830;9.116;2023-04-09T04:23:04;98499.28;;;9.75;67.00
15489;BME280;7846;48.830;9.116;2023-04-09T04:25:48;98502.47;;;9.78;67.43
15489;BME280;7846;48.830;9.116;2023-04-09T04:28:32;98503.34;;;9.88;66.70
15489;BME280;7846;48.830;9.116;2023-04-09T04:31:17;98508.28;;;9.72;67.15
15489;BME280;7846;48.830;9.116;2023-04-09T04:34:01;98504.41;;;9.66;67.49
15489;BME280;7846;48.830;9.116;2023-04-09T04:36:45;98509.75;;;9.55;67.45
15489;BME280;7846;48.830;9.116;2023-04-09T04:39:29;98511.88;;;9.71;67.60
15489;BME280;7846;48.830;9.116;2023-04-09T04:42:15;98498.22;;;9.87;67.29
15489;BME280;7846;48.830;9.116;2023-04-09T04:44:59;98510.75;;;9.64;67.43
15489;BME280;7846;48.830;9.116;2023-04-09T04:47:43;98511.03;;;9.61;67.19
15489;BME280;7846;48.830;9.116;2023-04-09T04:50:27;98519.84;;;9.50;67.49
15489;BME280;7846;48.830;9.116;2023-04-09T04:53:12;98515.84;;;9.56;67.60
15489;BME280;7846;48.830;9.116;2023-04-09T04:55:56;98516.00;;;9.64;67.46
15489;BME280;7846;48.830;9.116;2023-04-09T04:58:40;98510.75;;;9.64;67.60
15489;BME280;7846;48.830;9.116;2023-04-09T05:01:24;98506.56;;;9.52;67.96
15489;BME280;7846;48.830;9.116;2023-04-09T05:04:08;98518.25;;;9.68;67.66
15489;BME280;7846;48.830;9.116;2023-04-09T05:06:53;98520.16;;;9.66;67.55
15489;BME280;7846;48.830;9.116;2023-04-09T05:09:37;98516.50;;;9.38;68.38
15489;BME280;7846;48.830;9.116;2023-04-09T05:12:21;98515.34;;;9.72;67.71
15489;BME280;7846;48.830;9.116;2023-04-09T05:15:06;98517.31;;;9.79;67.24
15489;BME280;7846;48.830;9.116;2023-04-09T05:17:50;98526.25;;;9.67;67.66
15489;BME280;7846;48.830;9.116;2023-04-09T05:20:34;98520.00;;;9.58;68.41
15489;BME280;7846;48.830;9.116;2023-04-09T05:23:18;98516.34;;;9.80;67.78
15489;BME280;7846;48.830;9.116;2023-04-09T05:26:04;98513.34;;;10.14;67.12
15489;BME280;7846;48.830;9.116;2023-04-09T05:28:49;98517.19;;;10.00;66.79
15489;BME280;7846;48.830;9.116;2023-04-09T05:31:33;98515.25;;;10.02;67.11
15489;BME280;7846;48.830;9.116;2023-04-09T05:34:17;98516.91;;;10.03;66.67
15489;BME280;7846;48.830;9.116;2023-04-09T05:37:01;98520.09;;;10.07;66.93
15489;BME280;7846;48.830;9.116;2023-04-09T05:39:45;98524.66;;;10.05;66.77
15489;BME280;7846;48.830;9.116;2023-04-09T05:42:30;98526.38;;;10.25;66.63
15489;BME280;7846;48.830;9.116;2023-04-09T05:45:14;98518.22;;;10.48;66.16
15489;BME280;7846;48.830;9.116;2023-04-09T05:47:58;98520.69;;;10.49;66.48
15489;BME280;7846;48.830;9.116;2023-04-09T05:50:50;98521.34;;;10.90;65.98
15489;BME280;7846;48.830;9.116;2023-04-09T05:53:38;98524.59;;;10.64;66.21
15489;BME280;7846;48.830;9.116;2023-04-09T05:56:22;98525.25;;;10.66;66.08
15489;BME280;7846;48.830;9.116;2023-04-09T05:59:06;98525.38;;;10.94;65.61
15489;BME280;7846;48.830;9.116;2023-04-09T06:01:50;98519.41;;;10.92;65.25
15489;BME280;7846;48.830;9.116;2023-04-09T06:04:34;98516.31;;;11.06;65.00
15489;BME280;7846;48.830;9.116;2023-04-09T06:07:19;98526.31;;;10.93;64.87
15489;BME280;7846;48.830;9.116;2023-04-09T06:10:03;98532.16;;;10.97;64.44
15489;BME280;7846;48.830;9.116;2023-04-09T06:12:47;98534.44;;;11.19;64.81
15489;BME280;7846;48.830;9.116;2023-04-09T06:15:32;98535.88;;;11.51;63.46
15489;BME280;7846;48.830;9.116;2023-04-09T06:18:16;98522.13;;;11.10;64.59
15489;BME280;7846;48.830;9.116;2023-04-09T06:21:03;98523.84;;;11.66;64.02
15489;BME280;7846;48.830;9.116;2023-04-09T06:23:47;98519.97;;;11.33;64.67
15489;BME280;7846;48.830;9.116;2023-04-09T06:26:31;98522.75;;;11.69;63.61
15489;BME280;7846;48.830;9.116;2023-04-09T06:29:16;98518.25;;;12.06;62.58
15489;BME280;7846;48.830;9.116;2023-04-09T06:32:01;98528.72;;;11.98;62.21
15489;BME280;7846;48.830;9.116;2023-04-09T06:34:48;98526.13;;;11.89;63.27
15489;BME280;7846;48.830;9.116;2023-04-09T06:37:32;98515.66;;;12.15;62.01
15489;BME280;7846;48.830;9.116;2023-04-09T06:40:17;98530.91;;;12.03;63.32
15489;BME280;7846;48.830;9.116;2023-04-09T06:43:01;98530.00;;;12.48;61.98
15489;BME280;7846;48.830;9.116;2023-04-09T06:45:45;98536.22;;;12.39;61.83
15489;BME280;7846;48.830;9.116;2023-04-09T06:48:29;98536.09;;;12.30;62.11
15489;BME280;7846;48.830;9.116;2023-04-09T06:51:14;98538.47;;;12.51;61.83
15489;BME280;7846;48.830;9.116;2023-04-09T06:53:58;98534.09;;;12.24;61.61
15489;BME280;7846;48.830;9.116;2023-04-09T06:56:41;98535.88;;;12.77;61.42
15489;BME280;7846;48.830;9.116;2023-04-09T06:59:25;98544.59;;;12.96;60.76
15489;BME280;7846;48.830;9.116;2023-04-09T07:02:12;98543.25;;;13.18;60.54
15489;BME280;7846;48.830;9.116;2023-04-09T07:04:56;98538.94;;;12.91;60.83
15489;BME280;7846;48.830;9.116;2023-04-09T07:07:40;98539.41;;;13.12;59.74
15489;BME280;7846;48.830;9.116;2023-04-09T07:10:24;98534.47;;;13.69;57.63
15489;BME280;7846;48.830;9.116;2023-04-09T07:13:08;98542.88;;;13.65;57.17
15489;BME280;7846;48.830;9.116;2023-04-09T07:15:52;98536.94;;;13.37;57.52
15489;BME280;7846;48.830;9.116;2023-04-09T07:18:36;98545.38;;;13.74;56.93
15489;BME280;7846;48.830;9.116;2023-04-09T07:21:20;98536.31;;;13.85;56.36
15489;BME280;7846;48.830;9.116;2023-04-09T07:24:05;98539.06;;;14.18;55.77
15489;BME280;7846;48.830;9.116;2023-04-09T07:26:49;98539.56;;;14.13;55.09
15489;BME280;7846;48.830;9.116;2023-04-09T07:29:33;98536.63;;;14.33;54.64
15489;BME280;7846;48.830;9.116;2023-04-09T07:32:18;98531.22;;;14.50;54.06
15489;BME280;7846;48.830;9.116;2023-04-09T07:35:06;98538.31;;;14.66;54.15
15489;BME280;7846;48.830;9.116;2023-04-09T07:37:50;98535.84;;;14.89;53.36
15489;BME280;7846;48.830;9.116;2023-04-09T07:40:35;98535.34;;;14.77;53.49
15489;BME280;7846;48.830;9.116;2023-04-09T07:43:19;98542.63;;;14.84;52.91
15489;BME280;7846;48.830;9.116;2023-04-09T07:46:03;98535.00;;;14.89;51.29
15489;BME280;7846;48.830;9.116;2023-04-09T07:48:48;98539.13;;;15.24;50.80
15489;BME280;7846;48.830;9.116;2023-04-09T07:51:32;98541.22;;;15.37;49.81
15489;BME280;7846;48.830;9.116;2023-04-09T07:54:16;98550.88;;;15.21;50.88
15489;BME280;7846;48.830;9.116;2023-04-09T07:57:01;98565.22;;;15.52;49.89
15489;BME280;7846;48.830;9.116;2023-04-09T07:59:46;98562.34;;;15.14;49.94
15489;BME280;7846;48.830;9.116;2023-04-09T08:02:30;98560.78;;;14.38;51.34
15489;BME280;7846;48.830;9.116;2023-04-09T08:05:14;98562.69;;;14.62;50.24
15489;BME280;7846;48.830;9.116;2023-04-09T08:07:58;98562.78;;;14.44;49.88
15489;BME280;7846;48.830;9.116;2023-04-09T08:10:42;98566.19;;;14.20;50.31
15489;BME280;7846;48.830;9.116;2023-04-09T08:13:27;98562.50;;;15.04;49.07
15489;BME280;7846;48.830;9.116;2023-04-09T08:16:11;98560.81;;;15.36;50.10
15489;BME280;7846;48.830;9.116;2023-04-09T08:18:56;98554.09;;;15.72;46.37
15489;BME280;7846;48.830;9.116;2023-04-09T08:21:40;98563.88;;;15.56;47.75
15489;BME280;7846;48.830;9.116;2023-04-09T08:24:29;98559.63;;;15.30;46.25
15489;BME280;7846;48.830;9.116;2023-04-09T08:27:13;98550.56;;;14.67;47.05
15489;BME280;7846;48.830;9.116;2023-04-09T08:29:56;98558.59;;;15.56;45.58
15489;BME280;7846;48.830;9.116;2023-04-09T08:32:43;98567.19;;;16.13;45.74
15489;BME280;7846;48.830;9.116;2023-04-09T08:35:31;98564.00;;;15.79;44.84
15489;BME280;7846;48.830;9.116;2023-04-09T08:38:17;98569.03;;;16.05;43.66
15489;BME280;7846;48.830;9.116;2023-04-09T08:41:01;98559.59;;;16.56;43.28
15489;BME280;7846;48.830;9.116;2023-04-09T08:43:46;98557.94;;;16.01;44.62
15489;BME280;7846;48.830;9.116;2023-04-09T08:46:31;98563.47;;;15.83;44.85
15489;BME280;7846;48.830;9.116;2023-04-09T08:49:15;98561.72;;;16.07;43.52
15489;BME280;7846;48.830;9.116;2023-04-09T08:52:00;98565.97;;;15.85;44.40
15489;BME280;7846;48.830;9.116;2023-04-09T08:54:44;98565.88;;;15.62;44.64
15489;BME280;7846;48.830;9.116;2023-04-09T08:57:28;98568.13;;;14.93;44.14
15489;BME280;7846;48.830;9.116;2023-04-09T09:00:12;98566.69;;;15.62;44.85
15489;BME280;7846;48.830;9.116;2023-04-09T09:03:11;98566.41;;;16.28;43.77
15489;BME280;7846;48.830;9.116;2023-04-09T09:05:58;98569.25;;;15.95;42.30
15489;BME280;7846;48.830;9.116;2023-04-09T09:08:42;98573.22;;;15.27;44.27
15489;BME280;7846;48.830;9.116;2023-04-09T09:11:26;98577.72;;;15.99;42.82
15489;BME280;7846;48.830;9.116;2023-04-09T09:14:12;98572.63;;;15.64;39.99
15489;BME280;7846;48.830;9.116;2023-04-09T09:19:40;98567.16;;;16.90;40.42
15489;BME280;7846;48.830;9.116;2023-04-09T09:22:24;98568.47;;;17.47;39.14
15489;BME280;7846;48.830;9.116;2023-04-09T09:25:11;98561.94;;;17.35;38.30
15489;BME280;7846;48.830;9.116;2023-04-09T09:28:09;98573.59;;;17.49;38.54
15489;BME280;7846;48.830;9.116;2023-04-09T09:30:53;98575.94;;;17.81;38.95
15489;BME280;7846;48.830;9.116;2023-04-09T09:33:39;98581.13;;;17.45;37.90
15489;BME280;7846;48.830;9.116;2023-04-09T09:36:30;98577.31;;;17.77;37.49
15489;BME280;7846;48.830;9.116;2023-04-09T09:39:15;98577.28;;;17.62;37.00
15489;BME280;7846;48.830;9.116;2023-04-09T09:42:06;98577.66;;;17.74;38.46
15489;BME280;7846;48.830;9.116;2023-04-09T09:44:54;98577.44;;;17.46;38.74
15489;BME280;7846;48.830;9.116;2023-04-09T09:47:39;98578.03;;;17.86;39.09
15489;BME280;7846;48.830;9.116;2023-04-09T09:50:25;98573.13;;;17.45;39.92
15489;BME280;7846;48.830;9.116;2023-04-09T09:53:11;98572.31;;;17.74;40.28
15489;BME280;7846;48.830;9.116;2023-04-09T09:55:58;98571.75;;;18.08;39.32
15489;BME280;7846;48.830;9.116;2023-04-09T09:59:06;98568.69;;;18.84;38.67
15489;BME280;7846;48.830;9.116;2023-04-09T10:01:59;98573.00;;;17.76;39.70
15489;BME280;7846;48.830;9.116;2023-04-09T10:04:44;98575.19;;;17.73;41.05
15489;BME280;7846;48.830;9.116;2023-04-09T10:07:29;98570.41;;;18.34;40.45
15489;BME280;7846;48.830;9.116;2023-04-09T10:10:13;98575.06;;;17.51;40.62
15489;BME280;7846;48.830;9.116;2023-04-09T10:12:58;98578.94;;;17.93;41.14
15489;BME280;7846;48.830;9.116;2023-04-09T10:15:43;98574.34;;;17.87;39.94
15489;BME280;7846;48.830;9.116;2023-04-09T10:18:29;98564.00;;;18.28;39.83
15489;BME280;7846;48.830;9.116;2023-04-09T10:21:31;98562.41;;;20.37;37.60
15489;BME280;7846;48.830;9.116;2023-04-09T10:24:18;98563.63;;;20.28;36.97
15489;BME280;7846;48.830;9.116;2023-04-09T10:27:11;98568.03;;;20.01;36.58
15489;BME280;7846;48.830;9.116;2023-04-09T10:29:55;98555.53;;;18.82;36.72
15489;BME280;7846;48.830;9.116;2023-04-09T10:32:39;98558.91;;;18.91;35.79
15489;BME280;7846;48.830;9.116;2023-04-09T10:35:25;98556.81;;;18.86;36.41
15489;BME280;7846;48.830;9.116;2023-04-09T10:38:09;98558.75;;;17.54;37.11
15489;BME280;7846;48.830;9.116;2023-04-09T10:40:53;98551.75;;;17.68;37.34
15489;BME280;7846;48.830;9.116;2023-04-09T10:43:38;98558.44;;;18.08;37.91
15489;BME280;7846;48.830;9.116;2023-04-09T10:46:31;98544.38;;;19.22;36.11
15489;BME280;7846;48.830;9.116;2023-04-09T10:49:17;98542.69;;;18.93;36.42
15489;BME280;7846;48.830;9.116;2023-04-09T10:52:05;98542.97;;;20.02;33.94
15489;BME280;7846;48.830;9.116;2023-04-09T10:54:50;98554.25;;;19.28;34.52
15489;BME280;7846;48.830;9.116;2023-04-09T10:57:37;98540.44;;;19.18;35.87
15489;BME280;7846;48.830;9.116;2023-04-09T11:00:21;98538.69;;;18.60;35.76
15489;BME280;7846;48.830;9.116;2023-04-09T11:03:17;98537.63;;;19.26;35.65
15489;BME280;7846;48.830;9.116;2023-04-09T11:06:04;98541.91;;;19.55;35.19
15489;BME280;7846;48.830;9.116;2023-04-09T11:08:53;98536.72;;;19.47;34.10
15489;BME280;7846;48.830;9.116;2023-04-09T11:11:38;98536.34;;;19.56;33.40
15489;BME280;7846;48.830;9.116;2023-04-09T11:14:22;98533.16;;;19.68;33.43
15489;BME280;7846;48.830;9.116;2023-04-09T11:17:09;98536.78;;;20.56;33.33
15489;BME280;7846;48.830;9.116;2023-04-09T11:19:54;98539.47;;;21.36;33.05
15489;BME280;7846;48.830;9.116;2023-04-09T11:22:40;98537.63;;;21.03;31.84
15489;BME280;7846;48.830;9.116;2023-04-09T11:25:32;98535.16;;;20.88;31.08
15489;BME280;7846;48.830;9.116;2023-04-09T11:28:18;98534.31;;;21.47;32.09
15489;BME280;7846;48.830;9.116;2023-04-09T11:31:07;98529.03;;;21.79;31.13
15489;BME280;7846;48.830;9.116;2023-04-09T11:33:52;98535.13;;;20.75;32.33
15489;BME280;7846;48.830;9.116;2023-04-09T11:36:37;98530.59;;;21.35;31.89
15489;BME280;7846;48.830;9.116;2023-04-09T11:39:24;98532.69;;;21.40;31.95
15489;BME280;7846;48.830;9.116;2023-04-09T11:42:13;98530.38;;;22.08;31.79
15489;BME280;7846;48.830;9.116;2023-04-09T11:44:59;98537.53;;;20.37;32.27
15489;BME280;7846;48.830;9.116;2023-04-09T11:47:44;98531.63;;;20.68;32.89
15489;BME280;7846;48.830;9.116;2023-04-09T11:50:31;98522.78;;;20.87;32.43
15489;BME280;7846;48.830;9.116;2023-04-09T11:53:29;98523.19;;;20.58;31.64
15489;BME280;7846;48.830;9.116;2023-04-09T11:56:15;98523.22;;;20.77;32.08
15489;BME280;7846;48.830;9.116;2023-04-09T11:58:59;98528.56;;;20.91;31.69
15489;BME280;7846;48.830;9.116;2023-04-09T12:01:50;98531.94;;;20.31;33.59
15489;BME280;7846;48.830;9.116;2023-04-09T12:04:35;98531.22;;;19.55;34.53
15489;BME280;7846;48.830;9.116;2023-04-09T12:07:20;98519.00;;;20.35;33.00
15489;BME280;7846;48.830;9.116;2023-04-09T12:10:08;98534.31;;;19.58;33.58
15489;BME280;7846;48.830;9.116;2023-04-09T12:12:53;98521.44;;;19.34;32.97
15489;BME280;7846;48.830;9.116;2023-04-09T12:15:39;98523.41;;;19.88;34.03
15489;BME280;7846;48.830;9.116;2023-04-09T12:18:26;98525.09;;;20.09;33.01
15489;BME280;7846;48.830;9.116;2023-04-09T12:21:10;98519.59;;;19.63;32.17
15489;BME280;7846;48.830;9.116;2023-04-09T12:23:55;98518.03;;;19.81;32.21
15489;BME280;7846;48.830;9.116;2023-04-09T12:26:39;98518.66;;;21.05;31.78
15489;BME280;7846;48.830;9.116;2023-04-09T12:29:24;98514.00;;;21.78;31.72
15489;BME280;7846;48.830;9.116;2023-04-09T12:32:09;98510.28;;;22.31;30.98
15489;BME280;7846;48.830;9.116;2023-04-09T12:34:54;98514.13;;;22.73;29.45
15489;BME280;7846;48.830;9.116;2023-04-09T12:37:40;98511.06;;;22.38;29.80
15489;BME280;7846;48.830;9.116;2023-04-09T12:40:25;98500.81;;;23.10;29.04
15489;BME280;7846;48.830;9.116;2023-04-09T12:43:09;98502.56;;;21.24;30.67
15489;BME280;7846;48.830;9.116;2023-04-09T12:45:53;98496.59;;;20.36;31.45
15489;BME280;7846;48.830;9.116;2023-04-09T12:48:37;98492.53;;;20.87;32.38
15489;BME280;7846;48.830;9.116;2023-04-09T12:51:21;98489.25;;;21.76;31.50
15489;BME280;7846;48.830;9.116;2023-04-09T12:54:05;98487.75;;;21.35;30.59
15489;BME280;7846;48.830;9.116;2023-04-09T12:56:49;98488.00;;;23.30;29.21
15489;BME280;7846;48.830;9.116;2023-04-09T12:59:33;98493.22;;;22.12;30.11
15489;BME280;7846;48.830;9.116;2023-04-09T13:02:18;98477.53;;;20.66;31.33
15489;BME280;7846;48.830;9.116;2023-04-09T13:05:03;98478.47;;;22.34;30.40
15489;BME280;7846;48.830;9.116;2023-04-09T13:07:47;98478.63;;;22.39;30.79
15489;BME280;7846;48.830;9.116;2023-04-09T13:10:32;98475.78;;;23.34;28.56
15489;BME280;7846;48.830;9.116;2023-04-09T13:13:17;98481.34;;;23.14;28.41
15489;BME280;7846;48.830;9.116;2023-04-09T13:16:01;98475.72;;;22.98;28.85
15489;BME280;7846;48.830;9.116;2023-04-09T13:18:46;98480.69;;;22.69;28.74
15489;BME280;7846;48.830;9.116;2023-04-09T13:21:30;98474.69;;;22.10;30.12
15489;BME280;7846;48.830;9.116;2023-04-09T13:24:15;98468.41;;;22.30;28.84
15489;BME280;7846;48.830;9.116;2023-04-09T13:26:59;98463.06;;;23.23;27.86
15489;BME280;7846;48.830;9.116;2023-04-09T13:29:43;98461.16;;;21.47;29.77
15489;BME280;7846;48.830;9.116;2023-04-09T13:32:27;98463.84;;;21.47;30.42
15489;BME280;7846;48.830;9.116;2023-04-09T13:35:12;98466.25;;;21.62;30.69
15489;BME280;7846;48.830;9.116;2023-04-09T13:37:57;98452.31;;;22.80;29.44
15489;BME280;7846;48.830;9.116;2023-04-09T13:40:41;98446.25;;;24.13;28.12
15489;BME280;7846;48.830;9.116;2023-04-09T13:43:25;98445.75;;;23.93;26.54
15489;BME280;7846;48.830;9.116;2023-04-09T13:46:11;98445.53;;;23.57;28.59
15489;BME280;7846;48.830;9.116;2023-04-09T13:48:54;98452.63;;;24.19;28.40
15489;BME280;7846;48.830;9.116;2023-04-09T13:51:38;98439.25;;;24.54;25.62
15489;BME280;7846;48.830;9.116;2023-04-09T13:54:23;98433.81;;;22.97;27.42
15489;BME280;7846;48.830;9.116;2023-04-09T13:57:07;98433.34;;;21.41;30.29
15489;BME280;7846;48.830;9.116;2023-04-09T13:59:52;98448.88;;;20.86;30.87
15489;BME280;7846;48.830;9.116;2023-04-09T14:02:36;98422.94;;;22.03;29.76
15489;BME280;7846;48.830;9.116;2023-04-09T14:05:20;98425.81;;;22.02;29.14
15489;BME280;7846;48.830;9.116;2023-04-09T14:08:04;98422.84;;;21.85;31.08
15489;BME280;7846;48.830;9.116;2023-04-09T14:10:49;98411.09;;;23.66;29.04
15489;BME280;7846;48.830;9.116;2023-04-09T14:13:34;98423.34;;;24.76;25.98
15489;BME280;7846;48.830;9.116;2023-04-09T14:16:18;98417.78;;;24.35;27.13
15489;BME280;7846;48.830;9.116;2023-04-09T14:19:03;98407.94;;;24.29;27.43
15489;BME280;7846;48.830;9.116;2023-04-09T14:21:47;98397.06;;;24.36;27.23
15489;BME280;7846;48.830;9.116;2023-04-09T14:24:31;98405.22;;;24.71;27.22
15489;BME280;7846;48.830;9.116;2023-04-09T14:27:17;98403.84;;;25.44;25.48
15489;BME280;7846;48.830;9.116;2023-04-09T14:30:02;98397.63;;;26.80;25.53
15489;BME280;7846;48.830;9.116;2023-04-09T14:32:47;98394.38;;;27.17;25.04
15489;BME280;7846;48.830;9.116;2023-04-09T14:35:31;98412.41;;;26.94;25.27
15489;BME280;7846;48.830;9.116;2023-04-09T14:38:15;98414.13;;;25.47;25.53
15489;BME280;7846;48.830;9.116;2023-04-09T14:40:58;98413.13;;;24.43;26.86
15489;BME280;7846;48.830;9.116;2023-04-09T14:43:42;98403.66;;;24.10;27.74
15489;BME280;7846;48.830;9.116;2023-04-09T14:46:29;98402.72;;;24.46;26.96
15489;BME280;7846;48.830;9.116;2023-04-09T14:49:12;98396.50;;;24.34;27.82
15489;BME280;7846;48.830;9.116;2023-04-09T14:51:57;98397.81;;;24.90;26.83
15489;BME280;7846;48.830;9.116;2023-04-09T14:54:41;98405.31;;;24.65;26.55
15489;BME280;7846;48.830;9.116;2023-04-09T14:57:25;98406.50;;;23.73;27.17
15489;BME280;7846;48.830;9.116;2023-04-09T15:00:10;98403.19;;;22.54;27.81
15489;BME280;7846;48.830;9.116;2023-04-09T15:02:55;98403.91;;;22.18;28.91
15489;BME280;7846;48.830;9.116;2023-04-09T15:05:40;98401.66;;;21.25;29.71